Time;durP1;ratioP1;P1;durP2;ratioP2;P2;SDS_P1;SDS_P2;PMS_P1;PMS_P2;Temp;Humidity;BMP_temperature;BMP_pressure;BME280_temperature;BME280_humidity;BME280_pressure;Samples;Min_cycle;Max_cycle;Signal;HPM_P1;HPM_P2
2021/08/07 00:01:53;;;;;;;33.75;26.17;;;24.40;98.40;;;;;;5057348;28;20033;-83
2021/08/07 00:04:18;;;;;;;35.47;26.55;;;24.40;98.40;;;;;;5060050;28;20017;-82
2021/08/07 00:06:44;;;;;;;34.72;28.35;;;24.40;98.40;;;;;;5057554;28;20024;-83
2021/08/07 00:09:10;;;;;;;36.30;28.20;;;24.40;98.40;;;;;;5041784;28;20436;-83
2021/08/07 00:11:35;;;;;;;38.40;27.80;;;24.40;98.40;;;;;;5040478;28;20032;-83
2021/08/07 00:14:01;;;;;;;34.17;27.88;;;24.40;98.40;;;;;;5040713;28;20056;-83
2021/08/07 00:16:26;;;;;;;43.97;32.35;;;24.40;98.40;;;;;;5077796;28;20355;-83
2021/08/07 00:18:52;;;;;;;39.65;31.73;;;24.40;98.40;;;;;;5056908;28;20113;-83
2021/08/07 00:21:18;;;;;;;43.17;32.42;;;24.40;98.40;;;;;;5040098;28;20155;-83
2021/08/07 00:23:43;;;;;;;42.80;33.22;;;24.40;98.40;;;;;;5056783;28;20035;-83
2021/08/07 00:26:09;;;;;;;45.70;34.53;;;24.40;98.40;;;;;;5041938;28;20039;-84
2021/08/07 00:28:35;;;;;;;45.97;34.20;;;24.40;98.40;;;;;;5075735;28;20059;-82
2021/08/07 00:31:00;;;;;;;43.67;32.53;;;24.40;98.40;;;;;;5059519;28;20032;-83
2021/08/07 00:33:26;;;;;;;43.00;34.30;;;24.40;98.40;;;;;;5057053;28;20029;-82
2021/08/07 00:35:51;;;;;;;42.20;33.70;;;24.40;98.30;;;;;;5058770;28;20091;-82
2021/08/07 00:38:17;;;;;;;42.58;33.15;;;24.40;98.40;;;;;;5056453;28;20032;-83
2021/08/07 00:40:43;;;;;;;48.25;35.65;;;24.40;98.40;;;;;;5040159;28;20086;-83
2021/08/07 00:43:11;;;;;;;45.42;33.95;;;24.40;98.40;;;;;;5040024;28;20497;-84
2021/08/07 00:45:38;;;;;;;45.47;34.40;;;24.40;98.40;;;;;;5039794;28;20040;-82
2021/08/07 00:48:06;;;;;;;42.50;33.22;;;24.40;98.40;;;;;;5075562;28;20041;-82
2021/08/07 00:50:32;;;;;;;45.53;33.92;;;24.40;98.40;;;;;;5074144;28;20033;-83
2021/08/07 00:52:58;;;;;;;43.45;33.33;;;24.40;98.40;;;;;;5056671;28;20025;-84
2021/08/07 00:55:24;;;;;;;44.38;34.45;;;24.40;98.40;;;;;;5057236;28;20072;-84
2021/08/07 00:57:49;;;;;;;42.55;33.92;;;24.40;98.50;;;;;;5074594;28;20028;-84
2021/08/07 01:00:15;;;;;;;44.03;33.85;;;24.40;98.50;;;;;;5056402;28;20044;-83
2021/08/07 01:02:44;;;;;;;46.00;34.78;;;24.40;98.50;;;;;;5058079;28;20379;-83
2021/08/07 01:05:19;;;;;;;43.83;32.63;;;24.40;98.60;;;;;;5056380;28;20040;-83
2021/08/07 01:08:02;;;;;;;41.05;31.67;;;24.40;98.60;;;;;;5075997;28;20024;-83
2021/08/07 01:10:31;;;;;;;40.00;32.43;;;24.40;98.60;;;;;;5056330;28;20033;-83
2021/08/07 01:13:11;;;;;;;43.60;33.33;;;24.40;98.60;;;;;;5056772;28;20778;-84
2021/08/07 01:15:49;;;;;;;44.92;34.13;;;24.40;98.70;;;;;;5055971;28;20462;-83
2021/08/07 01:18:18;;;;;;;45.55;34.60;;;24.40;98.70;;;;;;5056134;28;20028;-83
2021/08/07 01:20:53;;;;;;;44.17;34.30;;;24.40;98.70;;;;;;5073546;28;20079;-83
2021/08/07 01:23:24;;;;;;;44.22;33.17;;;24.40;98.70;;;;;;5074034;28;20470;-82
2021/08/07 01:25:55;;;;;;;41.33;32.63;;;24.40;98.60;;;;;;5056264;28;20474;-83
2021/08/07 01:28:26;;;;;;;41.47;32.38;;;24.40;98.60;;;;;;5057749;28;20036;-87
2021/08/07 01:30:54;;;;;;;41.67;32.47;;;24.40;98.60;;;;;;5057565;28;20024;-83
2021/08/07 01:33:21;;;;;;;39.90;31.35;;;24.40;98.60;;;;;;5073497;28;20086;-83
2021/08/07 01:35:51;;;;;;;44.55;32.42;;;24.40;98.60;;;;;;5055495;28;20032;-83
2021/08/07 01:38:16;;;;;;;43.58;31.60;;;24.40;98.60;;;;;;5073423;28;20041;-83
2021/08/07 01:40:42;;;;;;;41.42;31.40;;;24.40;98.60;;;;;;5055342;28;20564;-83
2021/08/07 01:43:08;;;;;;;39.53;31.75;;;24.40;98.70;;;;;;5073243;28;20033;-83
2021/08/07 01:45:34;;;;;;;37.92;30.52;;;24.40;98.70;;;;;;5055272;28;20028;-83
2021/08/07 01:48:23;;;;;;;39.67;30.92;;;24.40;98.70;;;;;;5074385;28;20039;-83
2021/08/07 01:51:00;;;;;;;36.30;29.05;;;24.40;98.70;;;;;;5055524;28;20116;-83
2021/08/07 01:53:28;;;;;;;36.92;29.15;;;24.40;98.70;;;;;;5073328;28;20103;-84
2021/08/07 01:56:15;;;;;;;37.67;28.67;;;24.40;98.70;;;;;;5055528;28;20033;-83
2021/08/07 01:58:45;;;;;;;41.65;30.65;;;24.40;98.70;;;;;;5072498;28;20459;-83
2021/08/07 02:01:12;;;;;;;34.45;27.50;;;24.40;98.70;;;;;;5055396;28;20112;-84
2021/08/07 02:03:40;;;;;;;36.05;28.67;;;24.40;98.70;;;;;;5038454;28;20058;-83
2021/08/07 02:06:06;;;;;;;35.25;27.90;;;24.40;98.70;;;;;;5054935;28;20054;-83
2021/08/07 02:08:36;;;;;;;34.45;27.88;;;24.40;98.70;;;;;;5054737;28;20060;-83
2021/08/07 02:11:03;;;;;;;34.80;27.55;;;24.40;98.70;;;;;;5038562;28;20076;-83
2021/08/07 02:13:29;;;;;;;36.70;28.60;;;24.40;98.70;;;;;;5072666;28;20028;-84
2021/08/07 02:15:56;;;;;;;33.70;27.17;;;24.40;98.70;;;;;;5074207;28;20044;-83
2021/08/07 02:18:24;;;;;;;31.70;25.13;;;24.40;98.70;;;;;;5073160;28;20036;-83
2021/08/07 02:20:52;;;;;;;34.60;26.50;;;24.40;98.70;;;;;;5072234;28;20079;-83
2021/08/07 02:23:18;;;;;;;35.50;27.27;;;24.40;98.70;;;;;;5072940;28;20032;-83
2021/08/07 02:25:46;;;;;;;33.72;25.92;;;24.40;98.70;;;;;;5072324;28;20032;-83
2021/08/07 02:28:12;;;;;;;34.42;26.50;;;24.40;98.70;;;;;;5072957;28;20024;-83
2021/08/07 02:30:40;;;;;;;30.50;24.77;;;24.40;98.70;;;;;;5054564;28;20044;-83
2021/08/07 02:33:06;;;;;;;29.48;24.80;;;24.40;98.70;;;;;;5074643;28;20017;-83
2021/08/07 02:35:33;;;;;;;30.90;25.05;;;24.40;98.70;;;;;;5056184;28;20052;-84
2021/08/07 02:37:59;;;;;;;31.27;25.52;;;24.40;98.70;;;;;;5072478;28;20028;-83
2021/08/07 02:40:25;;;;;;;33.90;25.92;;;24.40;98.90;;;;;;5075415;28;20490;-83
2021/08/07 02:42:51;;;;;;;33.40;25.15;;;24.40;98.70;;;;;;5037743;28;20127;-83
2021/08/07 02:45:17;;;;;;;29.27;22.95;;;24.40;98.70;;;;;;5038141;28;20028;-83
2021/08/07 02:47:43;;;;;;;32.08;24.00;;;24.40;98.70;;;;;;5037725;28;20174;-83
2021/08/07 02:50:10;;;;;;;30.75;24.17;;;24.40;98.70;;;;;;5054566;28;20032;-83
2021/08/07 02:52:36;;;;;;;30.48;23.13;;;24.40;98.70;;;;;;5053944;28;20127;-83
2021/08/07 02:55:03;;;;;;;30.20;23.75;;;24.40;98.70;;;;;;5054739;28;20074;-83
2021/08/07 02:57:30;;;;;;;32.60;22.83;;;24.40;98.70;;;;;;5072634;28;20032;-83
2021/08/07 02:59:57;;;;;;;28.65;23.45;;;24.40;98.70;;;;;;5037808;28;20032;-83
2021/08/07 03:02:23;;;;;;;31.38;23.90;;;24.40;98.60;;;;;;5072127;28;20123;-83
2021/08/07 03:04:49;;;;;;;30.17;22.85;;;24.40;98.60;;;;;;5054320;28;20028;-83
2021/08/07 03:07:14;;;;;;;25.42;20.75;;;24.40;98.60;;;;;;5054288;28;20124;-82
2021/08/07 03:09:40;;;;;;;28.33;21.98;;;24.40;98.60;;;;;;5058546;28;20474;-83
2021/08/07 03:12:06;;;;;;;29.80;21.70;;;24.40;98.60;;;;;;5021587;28;20455;-83
2021/08/07 03:14:31;;;;;;;29.00;21.73;;;24.40;98.60;;;;;;5038942;28;20024;-83
2021/08/07 03:16:57;;;;;;;28.08;20.52;;;24.40;98.60;;;;;;5037493;28;20466;-83
2021/08/07 03:19:23;;;;;;;26.52;20.10;;;24.40;98.60;;;;;;5072095;28;20169;-83
2021/08/07 03:21:48;;;;;;;26.05;20.33;;;24.40;98.60;;;;;;5053647;28;20052;-82
2021/08/07 03:24:14;;;;;;;27.38;21.10;;;24.40;98.60;;;;;;5073157;28;20101;-83
2021/08/07 03:26:40;;;;;;;26.08;20.35;;;24.40;98.60;;;;;;5038633;28;20060;-83
2021/08/07 03:29:05;;;;;;;25.02;19.65;;;24.40;98.60;;;;;;5054814;28;20066;-82
2021/08/07 03:31:31;;;;;;;24.98;19.50;;;24.40;98.60;;;;;;5076458;28;20066;-83
2021/08/07 03:33:57;;;;;;;24.58;19.27;;;24.40;98.60;;;;;;5041437;28;20028;-83
2021/08/07 03:36:22;;;;;;;24.98;18.92;;;24.40;98.60;;;;;;5058505;28;20116;-83
2021/08/07 03:38:48;;;;;;;23.02;17.52;;;24.40;98.60;;;;;;5057659;28;20478;-83
2021/08/07 03:41:14;;;;;;;23.63;18.85;;;24.40;98.50;;;;;;5041754;28;20036;-83
2021/08/07 03:43:39;;;;;;;25.08;18.30;;;24.40;98.60;;;;;;5075710;28;20054;-83
2021/08/07 03:46:05;;;;;;;22.27;16.45;;;24.40;98.50;;;;;;5058817;28;20060;-83
2021/08/07 03:48:31;;;;;;;21.65;17.67;;;24.40;98.50;;;;;;5058067;28;20036;-83
2021/08/07 03:50:56;;;;;;;22.80;16.52;;;24.40;98.50;;;;;;5040674;28;20033;-83
2021/08/07 03:53:22;;;;;;;19.95;16.02;;;24.40;98.50;;;;;;5041155;28;20032;-83
2021/08/07 03:55:48;;;;;;;23.70;17.50;;;24.40;98.50;;;;;;5058501;28;20024;-83
2021/08/07 03:58:13;;;;;;;20.40;16.02;;;24.40;98.50;;;;;;5057652;28;20029;-83
2021/08/07 04:00:39;;;;;;;19.65;15.40;;;24.40;98.50;;;;;;5058977;28;20104;-83
2021/08/07 04:03:05;;;;;;;21.35;15.63;;;24.30;98.50;;;;;;5058340;28;20039;-83
2021/08/07 04:05:31;;;;;;;21.15;15.63;;;24.40;98.50;;;;;;5058974;28;20079;-83
2021/08/07 04:08:05;;;;;;;19.05;15.02;;;24.30;98.50;;;;;;5040552;28;20052;-83
2021/08/07 04:10:31;;;;;;;;;;;24.40;98.50;;;;;;5061428;28;20107;-83
2021/08/07 04:12:57;;;;;;;17.35;14.68;;;24.40;98.50;;;;;;5076070;28;19915;-84
2021/08/07 04:15:23;;;;;;;19.25;14.82;;;24.30;98.50;;;;;;5058074;28;20386;-83
2021/08/07 04:17:48;;;;;;;20.85;14.90;;;24.30;98.50;;;;;;5076084;28;20037;-83
2021/08/07 04:20:14;;;;;;;18.98;14.02;;;24.30;98.50;;;;;;5059520;28;20036;-83
2021/08/07 04:22:40;;;;;;;18.40;13.90;;;24.30;98.50;;;;;;5074946;28;20052;-83
2021/08/07 04:25:06;;;;;;;16.27;12.35;;;24.40;98.50;;;;;;5078710;28;20029;-83
2021/08/07 04:27:32;;;;;;;17.95;13.20;;;24.40;98.50;;;;;;5076756;28;20033;-83
2021/08/07 04:29:58;;;;;;;16.88;13.13;;;24.40;98.50;;;;;;5040346;28;20059;-83
2021/08/07 04:32:24;;;;;;;16.17;12.85;;;24.40;98.40;;;;;;5074866;28;20462;-83
2021/08/07 04:34:50;;;;;;;19.67;13.52;;;24.40;98.50;;;;;;5056563;28;20035;-84
2021/08/07 04:37:16;;;;;;;14.93;11.75;;;24.40;98.40;;;;;;5057017;28;20489;-83
2021/08/07 04:39:41;;;;;;;19.95;13.10;;;24.40;98.40;;;;;;5074772;28;20033;-83
2021/08/07 04:42:07;;;;;;;16.27;12.35;;;24.40;98.40;;;;;;5046374;28;20474;-83
2021/08/07 04:44:33;;;;;;;15.82;11.88;;;24.40;98.50;;;;;;5056888;28;20525;-84
2021/08/07 04:46:59;;;;;;;16.33;11.93;;;24.30;98.50;;;;;;5074631;28;20033;-83
2021/08/07 04:49:25;;;;;;;16.80;12.23;;;24.40;98.50;;;;;;5056803;28;20086;-83
2021/08/07 04:51:50;;;;;;;14.63;11.30;;;24.30;98.40;;;;;;5056380;28;20123;-83
2021/08/07 04:54:16;;;;;;;14.45;11.18;;;24.40;98.50;;;;;;5042814;28;20028;-83
2021/08/07 04:56:43;;;;;;;15.35;11.75;;;24.30;98.50;;;;;;5080206;28;20029;-83
2021/08/07 04:59:08;;;;;;;15.95;11.52;;;24.30;98.50;;;;;;5059701;28;20064;-83
2021/08/07 05:01:34;;;;;;;14.70;10.65;;;24.30;98.50;;;;;;5074338;28;20492;-83
2021/08/07 05:03:59;;;;;;;12.95;9.93;;;24.40;98.50;;;;;;5056524;28;20052;-83
2021/08/07 05:06:25;;;;;;;12.02;9.88;;;24.40;98.50;;;;;;5039394;28;20393;-83
2021/08/07 05:08:51;;;;;;;12.55;10.40;;;24.40;98.50;;;;;;5040063;28;20048;-83
2021/08/07 05:11:17;;;;;;;11.77;9.65;;;24.40;98.50;;;;;;5056112;28;20464;-83
2021/08/07 05:13:42;;;;;;;12.75;9.77;;;24.40;98.50;;;;;;5056355;28;20036;-83
2021/08/07 05:16:08;;;;;;;13.82;9.52;;;24.40;98.50;;;;;;5055927;28;20097;-83
2021/08/07 05:18:34;;;;;;;13.50;9.75;;;24.40;98.50;;;;;;5074055;28;20052;-83
2021/08/07 05:21:00;;;;;;;11.90;9.68;;;24.40;98.50;;;;;;5055996;28;20040;-83
2021/08/07 05:23:25;;;;;;;11.05;8.80;;;24.40;98.50;;;;;;5039338;28;20059;-83
2021/08/07 05:25:51;;;;;;;15.63;9.20;;;24.40;98.50;;;;;;5055861;28;20058;-83
2021/08/07 05:28:16;;;;;;;10.25;8.55;;;24.40;98.50;;;;;;5055917;28;20033;-83
2021/08/07 05:30:42;;;;;;;12.05;8.75;;;24.40;98.50;;;;;;5055871;28;20158;-83
2021/08/07 05:33:08;;;;;;;11.60;7.97;;;24.40;98.50;;;;;;5073228;28;20052;-82
2021/08/07 05:35:33;;;;;;;12.85;8.70;;;24.40;98.50;;;;;;5056240;28;20367;-83
2021/08/07 05:37:59;;;;;;;12.65;9.05;;;24.40;98.50;;;;;;5072959;28;20039;-82
2021/08/07 05:40:24;;;;;;;11.93;8.15;;;24.40;98.50;;;;;;5039265;28;20044;-84
2021/08/07 05:42:50;;;;;;;9.50;7.03;;;24.40;98.50;;;;;;5039006;28;20524;-83
2021/08/07 05:45:16;;;;;;;9.52;7.05;;;24.40;98.50;;;;;;5055443;28;20466;-83
2021/08/07 05:47:42;;;;;;;9.02;6.93;;;24.40;98.40;;;;;;5073548;28;20471;-82
2021/08/07 05:50:09;;;;;;;10.07;7.05;;;24.40;98.40;;;;;;5055329;28;20035;-83
2021/08/07 05:52:35;;;;;;;8.85;6.68;;;24.40;98.40;;;;;;5072796;28;20025;-83
2021/08/07 05:55:01;;;;;;;8.50;6.72;;;24.40;98.40;;;;;;5072914;28;20071;-83
2021/08/07 05:57:26;;;;;;;7.82;6.15;;;24.40;98.40;;;;;;5055224;28;20060;-83
2021/08/07 05:59:52;;;;;;;8.07;5.85;;;24.40;98.30;;;;;;5038540;28;20043;-81
2021/08/07 06:02:18;;;;;;;9.43;6.90;;;24.40;98.30;;;;;;5055124;28;20078;-82
2021/08/07 06:04:43;;;;;;;8.32;5.78;;;24.40;98.30;;;;;;5038459;28;20113;-82
2021/08/07 06:07:09;;;;;;;8.45;5.75;;;24.40;98.30;;;;;;5054902;28;20033;-83
2021/08/07 06:09:34;;;;;;;8.32;5.88;;;24.40;98.30;;;;;;5038957;28;20129;-83
2021/08/07 06:12:00;;;;;;;8.45;6.32;;;24.40;98.30;;;;;;5055096;28;20369;-82
2021/08/07 06:14:26;;;;;;;7.32;5.93;;;24.40;98.30;;;;;;5073084;28;20070;-82
2021/08/07 06:16:52;;;;;;;7.93;5.70;;;24.40;98.30;;;;;;5054891;28;20382;-82
2021/08/07 06:19:17;;;;;;;7.15;5.80;;;24.40;98.30;;;;;;5038041;28;20070;-82
2021/08/07 06:21:43;;;;;;;6.90;5.07;;;24.50;98.30;;;;;;5055658;28;20501;-82
2021/08/07 06:24:09;;;;;;;7.43;5.25;;;24.50;98.40;;;;;;5054730;28;20567;-82
2021/08/07 06:26:35;;;;;;;8.88;4.93;;;24.50;98.40;;;;;;5054764;28;20054;-82
2021/08/07 06:29:00;;;;;;;6.43;4.47;;;24.50;98.40;;;;;;5038572;28;20035;-83
2021/08/07 06:31:26;;;;;;;6.85;5.00;;;24.50;98.40;;;;;;5072806;28;20111;-82
2021/08/07 06:33:53;;;;;;;8.52;4.80;;;24.50;98.40;;;;;;5053888;28;20103;-82
2021/08/07 06:36:20;;;;;;;9.00;4.35;;;24.50;98.40;;;;;;5038047;28;20542;-82
2021/08/07 06:38:46;;;;;;;6.25;4.03;;;24.50;98.40;;;;;;5054869;28;20033;-82
2021/08/07 06:41:12;;;;;;;6.75;4.10;;;24.50;98.40;;;;;;5072310;28;20025;-82
2021/08/07 06:43:37;;;;;;;7.40;4.20;;;24.50;98.40;;;;;;5054635;28;20119;-82
2021/08/07 06:46:03;;;;;;;5.03;3.85;;;24.50;98.40;;;;;;5037949;28;20033;-83
2021/08/07 06:48:29;;;;;;;6.68;3.97;;;24.50;98.40;;;;;;5037772;28;20036;-82
2021/08/07 06:50:55;;;;;;;5.47;3.42;;;24.50;98.30;;;;;;5072586;28;20024;-83
2021/08/07 06:53:21;;;;;;;5.97;3.80;;;24.50;98.30;;;;;;5071968;28;20390;-86
2021/08/07 06:55:46;;;;;;;5.25;3.58;;;24.50;98.30;;;;;;5055275;28;20051;-86
2021/08/07 06:58:12;;;;;;;6.75;4.20;;;24.50;98.30;;;;;;5053035;28;20064;-85
2021/08/07 07:00:39;;;;;;;5.63;3.80;;;24.40;98.30;;;;;;5038059;28;20029;-85
2021/08/07 07:03:05;;;;;;;7.53;4.55;;;24.40;98.30;;;;;;5071851;28;20025;-84
2021/08/07 07:05:33;;;;;;;6.10;4.50;;;24.50;98.30;;;;;;5072490;28;20029;-83
2021/08/07 07:08:02;;;;;;;9.93;6.00;;;24.40;98.30;;;;;;5072694;28;20029;-83
2021/08/07 07:10:28;;;;;;;8.77;5.10;;;24.40;98.20;;;;;;5072460;28;20389;-83
2021/08/07 07:12:55;;;;;;;8.02;5.63;;;24.50;98.30;;;;;;5037912;28;20067;-83
2021/08/07 07:15:21;;;;;;;11.05;6.20;;;24.40;98.20;;;;;;5072234;28;20040;-84
2021/08/07 07:17:47;;;;;;;7.32;5.65;;;24.50;98.20;;;;;;5072502;28;20066;-84
2021/08/07 07:20:13;;;;;;;10.05;6.05;;;24.40;98.20;;;;;;5055993;28;20092;-85
2021/08/07 07:22:40;;;;;;;9.02;5.38;;;24.40;98.20;;;;;;5041015;28;20048;-85
2021/08/07 07:25:08;;;;;;;5.95;4.95;;;24.40;98.20;;;;;;5038396;28;20037;-86
2021/08/07 07:27:34;;;;;;;7.47;5.13;;;24.40;98.20;;;;;;5055004;28;20058;-85
2021/08/07 07:29:59;;;;;;;6.40;4.90;;;24.40;98.10;;;;;;5074035;28;20103;-85
2021/08/07 07:32:25;;;;;;;6.20;4.32;;;24.40;98.10;;;;;;5071695;28;20060;-85
2021/08/07 07:34:51;;;;;;;6.93;4.47;;;24.40;98.10;;;;;;5072297;28;20032;-85
2021/08/07 07:37:16;;;;;;;6.65;3.78;;;24.40;98.10;;;;;;5073330;28;20037;-85
2021/08/07 07:39:42;;;;;;;5.85;3.75;;;24.40;98.10;;;;;;5072114;28;20174;-85
2021/08/07 07:42:08;;;;;;;7.53;3.78;;;24.50;98.10;;;;;;5072120;28;20025;-84
2021/08/07 07:44:34;;;;;;;4.82;3.38;;;24.50;98.10;;;;;;5053987;28;20029;-84
2021/08/07 07:46:59;;;;;;;8.38;3.60;;;24.40;98.10;;;;;;5054601;28;20028;-83
2021/08/07 07:49:26;;;;;;;6.05;3.13;;;24.40;98.00;;;;;;5053749;28;20032;-84
2021/08/07 07:51:51;;;;;;;6.65;3.40;;;24.50;97.90;;;;;;5071757;28;20470;-83
2021/08/07 07:54:17;;;;;;;4.40;2.47;;;24.60;97.90;;;;;;5053760;28;20039;-84
2021/08/07 07:56:43;;;;;;;5.57;3.28;;;24.60;97.80;;;;;;5053511;28;20390;-83
2021/08/07 07:59:08;;;;;;;3.40;2.65;;;24.60;97.80;;;;;;5053787;28;20036;-87
2021/08/07 08:01:34;;;;;;;5.85;2.50;;;24.60;97.80;;;;;;5052799;28;20036;-81
2021/08/07 08:03:59;;;;;;;3.85;2.22;;;24.60;97.80;;;;;;5071607;28;20051;-83
2021/08/07 08:06:25;;;;;;;4.15;2.33;;;24.60;97.80;;;;;;5018277;28;20463;-84
2021/08/07 08:08:51;;;;;;;3.55;2.15;;;24.60;97.80;;;;;;5071689;28;20076;-85
2021/08/07 08:11:17;;;;;;;4.57;2.25;;;24.60;97.80;;;;;;5081833;28;20052;-83
2021/08/07 08:13:42;;;;;;;3.10;2.10;;;24.60;97.80;;;;;;5070399;28;20071;-84
2021/08/07 08:16:08;;;;;;;5.05;2.40;;;24.60;97.80;;;;;;5056017;28;20493;-84
2021/08/07 08:18:34;;;;;;;3.38;1.88;;;24.60;97.80;;;;;;5039986;28;20041;-84
2021/08/07 08:21:00;;;;;;;4.10;2.00;;;24.60;97.80;;;;;;5057045;28;20408;-84
2021/08/07 08:23:26;;;;;;;3.20;2.05;;;24.60;97.70;;;;;;5074653;28;20057;-83
2021/08/07 08:25:51;;;;;;;5.13;2.33;;;24.60;97.70;;;;;;5076916;28;20132;-83
2021/08/07 08:28:17;;;;;;;4.38;2.00;;;24.60;97.70;;;;;;5056619;28;20390;-84
2021/08/07 08:30:43;;;;;;;5.57;2.08;;;24.60;97.70;;;;;;5059486;28;20082;-84
2021/08/07 08:33:09;;;;;;;3.40;1.83;;;24.60;97.60;;;;;;5074979;28;20033;-84
2021/08/07 08:35:35;;;;;;;4.45;1.90;;;24.60;97.60;;;;;;5039914;28;20028;-84
2021/08/07 08:38:00;;;;;;;3.63;1.92;;;24.60;97.60;;;;;;5075163;28;20481;-82
2021/08/07 08:40:27;;;;;;;4.32;1.88;;;24.60;97.60;;;;;;5039818;28;20082;-84
2021/08/07 08:42:52;;;;;;;2.45;1.70;;;24.60;97.60;;;;;;5074711;28;20021;-83
2021/08/07 08:45:19;;;;;;;4.05;2.00;;;24.60;97.60;;;;;;5074148;28;20503;-84
2021/08/07 08:47:45;;;;;;;4.18;2.65;;;24.60;97.60;;;;;;5079136;28;20204;-87
2021/08/07 08:50:12;;;;;;;3.45;2.25;;;24.60;97.60;;;;;;5056592;28;20556;-85
2021/08/07 08:52:39;;;;;;;4.30;2.47;;;24.50;97.80;;;;;;5073978;28;20090;-85
2021/08/07 08:55:07;;;;;;;5.57;2.65;;;24.50;97.60;;;;;;5074417;28;20463;-85
2021/08/07 08:57:34;;;;;;;6.40;2.75;;;24.50;97.60;;;;;;5056190;28;20119;-85
2021/08/07 09:00:00;;;;;;;4.60;2.97;;;24.50;97.60;;;;;;5074528;28;20119;-84
2021/08/07 09:02:26;;;;;;;4.18;2.78;;;24.50;97.60;;;;;;5074075;28;20024;-85
2021/08/07 09:04:52;;;;;;;4.53;3.03;;;24.50;97.70;;;;;;5056793;28;20439;-85
2021/08/07 09:07:19;;;;;;;6.13;3.15;;;24.50;97.70;;;;;;5039566;28;20035;-88
2021/08/07 09:09:51;;;;;;;5.13;3.10;;;24.50;97.80;;;;;;5043761;28;20109;-84
2021/08/07 09:12:17;;;;;;;4.25;2.75;;;24.50;97.80;;;;;;5074313;28;20127;-85
2021/08/07 09:14:45;;;;;;;4.03;2.60;;;24.50;97.90;;;;;;5042340;28;20048;-84
2021/08/07 09:17:12;;;;;;;4.57;2.70;;;24.50;97.90;;;;;;5057992;28;20446;-85
2021/08/07 09:19:41;;;;;;;5.07;2.50;;;24.50;98.00;;;;;;5074097;28;20043;-84
2021/08/07 09:22:09;;;;;;;4.25;2.78;;;24.50;98.00;;;;;;5055845;28;20017;-85
2021/08/07 09:24:58;;;;;;;5.20;2.80;;;24.50;98.00;;;;;;5055836;28;20386;-84
2021/08/07 09:27:37;;;;;;;3.90;2.10;;;24.50;98.00;;;;;;5055149;28;20127;-82
2021/08/07 09:30:17;;;;;;;3.75;2.10;;;24.50;98.00;;;;;;5055973;28;20128;-82
2021/08/07 09:32:51;;;;;;;3.78;2.28;;;24.50;98.00;;;;;;5073572;28;20139;-85
2021/08/07 09:35:23;;;;;;;3.85;2.08;;;24.50;98.00;;;;;;5073348;28;20024;-85
2021/08/07 09:38:07;;;;;;;3.67;2.03;;;24.50;98.00;;;;;;5056204;28;20110;-85
2021/08/07 09:40:40;;;;;;;3.75;1.80;;;24.50;98.00;;;;;;5075799;28;20047;-84
2021/08/07 09:43:07;;;;;;;2.40;1.65;;;24.50;98.00;;;;;;5056817;28;20048;-82
2021/08/07 09:45:32;;;;;;;3.10;1.52;;;24.50;97.90;;;;;;5055445;28;20020;-81
2021/08/07 09:48:01;;;;;;;1.95;1.20;;;24.50;97.90;;;;;;5073169;28;20398;-85
2021/08/07 09:50:29;;;;;;;2.35;1.23;;;24.50;97.80;;;;;;5073148;28;20039;-85
2021/08/07 09:52:55;;;;;;;2.30;1.35;;;24.50;97.80;;;;;;5055435;28;20036;-85
2021/08/07 09:55:22;;;;;;;2.65;1.52;;;24.50;97.70;;;;;;5055590;28;20526;-84
2021/08/07 09:58:01;;;;;;;4.80;1.63;;;24.50;97.70;;;;;;5055187;28;20033;-85
2021/08/07 10:00:41;;;;;;;2.28;1.40;;;24.50;97.70;;;;;;5055142;28;20051;-85
2021/08/07 10:03:34;;;;;;;2.75;1.40;;;24.50;97.70;;;;;;5077206;28;20119;-84
2021/08/07 10:06:33;;;;;;;3.92;1.50;;;24.60;97.70;;;;;;5069239;28;20120;-84
2021/08/07 10:08:58;;;;;;;2.47;1.33;;;24.50;97.60;;;;;;5001437;28;20039;-84
2021/08/07 10:11:26;;;;;;;2.38;1.75;;;24.50;97.60;;;;;;5038350;28;20032;-86
2021/08/07 10:13:53;;;;;;;1.73;1.20;;;24.50;97.50;;;;;;5055463;28;20031;-85
2021/08/07 10:16:20;;;;;;;4.93;2.50;;;24.50;97.40;;;;;;5055146;28;20443;-85
2021/08/07 10:18:48;;;;;;;3.97;2.30;;;24.50;97.40;;;;;;5054750;28;20036;-86
2021/08/07 10:21:15;;;;;;;3.55;2.28;;;24.50;97.30;;;;;;5038389;28;20119;-85
2021/08/07 10:23:40;;;;;;;5.13;2.83;;;24.50;97.40;;;;;;5038101;28;20049;-85
2021/08/07 10:26:12;;;;;;;3.47;2.45;;;24.50;97.20;;;;;;5038370;28;20444;-85
2021/08/07 10:28:54;;;;;;;3.58;2.47;;;24.50;97.20;;;;;;5072662;28;20028;-85
2021/08/07 10:31:22;;;;;;;4.68;2.60;;;24.50;97.10;;;;;;5057543;28;20060;-85
2021/08/07 10:33:51;;;;;;;4.65;2.92;;;24.50;97.10;;;;;;5056653;28;20494;-84
2021/08/07 10:36:17;;;;;;;3.80;2.78;;;24.50;97.10;;;;;;5054810;28;20028;-85
2021/08/07 10:38:43;;;;;;;3.85;2.58;;;24.50;97.10;;;;;;5042173;28;20123;-84
2021/08/07 10:41:09;;;;;;;5.07;3.97;;;24.50;97.00;;;;;;5054852;28;20386;-84
2021/08/07 10:43:39;;;;;;;7.07;4.40;;;24.50;97.10;;;;;;5037875;28;20035;-84
2021/08/07 10:46:07;;;;;;;7.78;4.90;;;24.50;97.10;;;;;;5038313;28;20466;-85
2021/08/07 10:48:38;;;;;;;6.15;4.53;;;24.50;97.10;;;;;;5039714;28;20055;-85
2021/08/07 10:51:18;;;;;;;6.97;4.47;;;24.50;97.10;;;;;;5054789;28;20028;-85
2021/08/07 10:53:47;;;;;;;4.93;3.97;;;24.60;97.10;;;;;;5054265;28;20401;-85
2021/08/07 10:56:34;;;;;;;6.45;4.30;;;24.50;97.10;;;;;;5072628;28;20103;-83
2021/08/07 10:59:11;;;;;;;5.97;4.10;;;24.50;97.20;;;;;;5072608;28;20431;-84
2021/08/07 11:01:42;;;;;;;5.57;3.63;;;24.50;97.20;;;;;;5054366;28;20024;-85
2021/08/07 11:04:18;;;;;;;5.07;3.60;;;24.50;97.20;;;;;;5054456;28;20094;-85
2021/08/07 11:06:44;;;;;;;4.72;3.35;;;24.50;97.20;;;;;;5054223;28;20055;-85
2021/08/07 11:09:36;;;;;;;5.05;3.33;;;24.50;97.30;;;;;;5055156;28;20455;-85
2021/08/07 11:12:11;;;;;;;5.25;3.47;;;24.60;97.30;;;;;;5054862;28;20029;-85
2021/08/07 11:14:47;;;;;;;5.95;3.72;;;24.60;97.30;;;;;;5079114;28;20025;-85
2021/08/07 11:17:13;;;;;;;4.43;3.22;;;24.60;97.40;;;;;;5054700;28;20025;-85
2021/08/07 11:19:59;;;;;;;8.43;4.97;;;24.60;97.30;;;;;;5072567;28;20024;-85
2021/08/07 11:25:04;;;;;;;8.30;5.03;;;24.60;97.30;;;;;;5073903;28;20055;-84
2021/08/07 11:27:59;;;;;;;7.70;5.10;;;24.60;97.50;;;;;;5054497;28;20108;-84
2021/08/07 11:30:33;;;;;;;7.68;5.40;;;24.60;97.20;;;;;;5054162;28;20038;-85
2021/08/07 11:33:00;;;;;;;7.93;5.30;;;24.60;97.10;;;;;;5054730;28;20035;-84
2021/08/07 11:35:31;;;;;;;10.43;5.90;;;24.50;97.00;;;;;;5072278;28;20021;-83
2021/08/07 11:38:06;;;;;;;8.88;6.00;;;24.60;97.00;;;;;;5051979;28;20031;-83
2021/08/07 11:40:58;;;;;;;8.68;6.10;;;24.50;96.90;;;;;;5053943;28;20052;-83
2021/08/07 11:43:26;;;;;;;6.63;5.40;;;24.60;96.70;;;;;;5054319;28;20382;-83
2021/08/07 11:45:54;;;;;;;6.82;5.30;;;24.60;96.60;;;;;;5071838;28;20025;-83
2021/08/07 11:48:35;;;;;;;6.72;5.20;;;24.60;96.50;;;;;;5054126;28;20031;-83
2021/08/07 11:51:04;;;;;;;7.00;5.47;;;24.60;96.50;;;;;;5056473;28;20028;-83
2021/08/07 11:53:30;;;;;;;7.45;5.05;;;24.60;96.50;;;;;;5058177;28;20103;-83
2021/08/07 11:56:06;;;;;;;7.88;5.18;;;24.60;96.50;;;;;;5057449;28;20088;-83
2021/08/07 11:58:40;;;;;;;7.13;4.78;;;24.60;96.50;;;;;;5057812;28;20118;-83
2021/08/07 12:01:06;;;;;;;6.47;3.88;;;24.50;96.50;;;;;;5042272;28;20032;-83
2021/08/07 12:03:43;;;;;;;4.75;3.25;;;24.60;96.50;;;;;;5057424;28;20033;-83
2021/08/07 12:06:12;;;;;;;4.38;3.10;;;24.50;96.50;;;;;;5058093;28;20030;-83
2021/08/07 12:08:38;;;;;;;4.13;2.70;;;24.50;96.50;;;;;;5075559;28;20029;-83
2021/08/07 12:11:07;;;;;;;6.03;2.83;;;24.50;96.50;;;;;;5041100;28;20257;-83
2021/08/07 12:13:38;;;;;;;4.18;2.50;;;24.50;96.50;;;;;;5065417;28;20033;-83
2021/08/07 12:16:13;;;;;;;3.15;2.10;;;24.50;96.40;;;;;;5057693;28;20093;-83
2021/08/07 12:18:50;;;;;;;;;;;24.50;96.30;;;;;;5058260;28;20032;-83
2021/08/07 12:21:28;;;;;;;2.83;1.95;;;24.50;96.10;;;;;;5057527;28;19991;-83
2021/08/07 12:24:08;;;;;;;3.40;1.80;;;24.40;96.00;;;;;;5075088;28;20149;-83
2021/08/07 12:26:41;;;;;;;2.35;1.60;;;24.40;95.90;;;;;;5057382;28;20025;-83
2021/08/07 12:29:11;;;;;;;2.00;1.50;;;24.50;95.80;;;;;;5057105;28;20385;-83
2021/08/07 12:31:49;;;;;;;2.38;1.60;;;24.50;95.80;;;;;;5075127;28;20033;-83
2021/08/07 12:34:47;;;;;;;1.55;1.40;;;24.50;95.70;;;;;;5056968;28;20029;-83
2021/08/07 12:37:20;;;;;;;2.08;1.48;;;24.50;95.60;;;;;;5013548;28;20032;-84
2021/08/07 12:39:49;;;;;;;2.72;1.63;;;24.50;95.50;;;;;;5056944;28;20032;-84
2021/08/07 12:42:23;;;;;;;2.60;1.50;;;24.50;95.40;;;;;;5057016;28;20067;-83
2021/08/07 12:45:15;;;;;;;2.38;1.35;;;24.50;95.30;;;;;;5074589;28;20470;-83
2021/08/07 12:47:41;;;;;;;2.55;1.50;;;24.50;95.20;;;;;;5037043;28;20036;-83